Time;durP1;ratioP1;P1;durP2;ratioP2;P2;SDS_P1;SDS_P2;PMS_P1;PMS_P2;Temp;Humidity;BMP_temperature;BMP_pressure;BME280_temperature;BME280_humidity;BME280_pressure;Samples;Min_cycle;Max_cycle;Signal;HPM_P1;HPM_P2
2022/06/18 00:00:51;;;;;;;;;3.67;3.67;;;;;21.33;48.67;99114.91;4964453;28;102275;-58
2022/06/18 00:03:19;;;;;;;;;3.00;3.00;;;;;21.35;48.40;99120.94;4942924;28;104268;-58
2022/06/18 00:05:47;;;;;;;;;3.00;3.00;;;;;21.33;48.43;99114.91;4946531;28;102791;-58
2022/06/18 00:08:20;;;;;;;;;5.00;3.67;;;;;21.34;48.11;99121.22;4930484;28;102678;-58
2022/06/18 00:10:48;;;;;;;;;4.33;3.33;;;;;21.33;48.29;99120.41;4934646;28;102434;-58
2022/06/18 00:16:03;;;;;;;;;1.67;1.67;;;;;21.30;48.71;99115.38;4982510;28;102563;-57
2022/06/18 00:18:31;;;;;;;;;4.00;4.00;;;;;21.29;48.12;99124.75;4960342;28;102965;-58
2022/06/18 00:20:59;;;;;;;;;5.67;4.33;;;;;21.28;48.68;99120.34;4944041;28;102485;-58
2022/06/18 00:23:28;;;;;;;;;4.33;4.00;;;;;21.29;48.05;99122.00;4984985;28;104095;-58
2022/06/18 00:25:55;;;;;;;;;4.00;3.67;;;;;21.29;48.28;99113.75;4960206;28;101959;-58
2022/06/18 00:28:24;;;;;;;;;4.67;3.33;;;;;21.29;48.13;99122.00;4958167;28;102297;-58
2022/06/18 00:30:52;;;;;;;;;5.00;5.00;;;;;21.29;48.11;99118.41;4963699;28;102216;-58
2022/06/18 00:33:20;;;;;;;;;3.00;3.00;;;;;21.29;48.36;99122.00;4954746;28;104152;-58
2022/06/18 00:35:48;;;;;;;;;4.33;4.33;;;;;21.28;48.45;99112.09;4960869;28;104122;-58
2022/06/18 00:38:24;;;;;;;;;3.67;3.33;;;;;21.27;48.29;99121.41;4931821;28;103967;-58
2022/06/18 00:40:52;;;;;;;;;3.00;3.00;;;;;21.26;48.74;99118.91;4953425;28;102592;-58
2022/06/18 00:43:30;;;;;;;;;3.00;3.00;;;;;21.26;48.26;99119.75;4957930;28;104250;-58
2022/06/18 00:46:47;;;;;;;;;4.00;4.00;;;;;21.27;48.34;99123.34;4953248;28;105232;-58
2022/06/18 00:49:56;;;;;;;;;4.00;4.00;;;;;21.26;48.27;99111.50;4916913;28;102208;-58
2022/06/18 00:52:38;;;;;;;;;4.00;3.67;;;;;21.24;48.69;99110.94;4939940;28;102594;-58
2022/06/18 00:55:30;;;;;;;;;4.00;3.00;;;;;21.25;48.34;99117.28;4953129;28;103996;-58
2022/06/18 00:58:05;;;;;;;;;3.33;3.33;;;;;21.24;48.43;99110.94;4969366;28;102517;-58
2022/06/18 01:00:43;;;;;;;;;4.67;4.00;;;;;21.23;48.48;99109.28;4930280;28;102523;-58
2022/06/18 01:03:31;;;;;;;;;3.67;3.67;;;;;21.23;48.43;99117.53;4937292;28;102399;-58
2022/06/18 01:06:01;;;;;;;;;4.00;4.00;;;;;21.23;48.29;99114.78;4899851;28;108900;-58
2022/06/18 01:08:29;;;;;;;;;3.00;3.00;;;;;21.23;48.09;99124.94;4927738;28;102547;-58
2022/06/18 01:10:58;;;;;;;;;4.00;4.00;;;;;21.24;48.15;99121.94;4922442;28;102292;-59
2022/06/18 01:13:28;;;;;;;;;4.00;4.00;;;;;21.23;48.40;99119.44;4966414;28;102287;-59
2022/06/18 01:15:57;;;;;;;;;4.00;3.00;;;;;21.22;47.95;99120.50;4944760;28;104095;-59
2022/06/18 01:18:24;;;;;;;;;4.00;3.00;;;;;21.21;48.46;99122.44;4950494;28;102265;-58
2022/06/18 01:20:54;;;;;;;;;3.00;3.00;;;;;21.21;48.05;99114.19;4954314;28;102444;-58
2022/06/18 01:23:40;;;;;;;;;3.67;3.67;;;;;21.20;48.08;99109.78;4955192;28;102605;-58
2022/06/18 01:26:08;;;;;;;;;4.00;4.00;;;;;21.21;48.44;99107.84;4968019;28;104286;-58
2022/06/18 01:28:35;;;;;;;;;4.00;4.00;;;;;21.19;48.55;99101.78;4951747;28;102191;-58
2022/06/18 01:31:03;;;;;;;;;4.33;4.00;;;;;21.20;48.70;99103.47;4955458;28;102343;-58
2022/06/18 01:33:33;;;;;;;;;4.00;4.00;;;;;21.20;48.28;99097.97;4961136;28;102529;-58
2022/06/18 01:36:02;;;;;;;;;5.00;5.00;;;;;21.18;48.36;99098.22;4988940;28;104191;-58
2022/06/18 01:38:29;;;;;;;;;2.00;2.00;;;;;21.19;48.34;99099.03;4958214;28;102314;-58
2022/06/18 01:41:49;;;;;;;;;4.00;4.00;;;;;21.19;47.97;99096.28;4939531;28;103429;-59
2022/06/18 01:43:49;;;;;;;;;4.67;4.67;;;;;21.20;47.88;99092.47;4945487;28;102432;-58
2022/06/18 01:46:17;;;;;;;;;3.00;3.00;;;;;21.19;48.53;99091.63;4955948;28;104049;-58
2022/06/18 01:48:44;;;;;;;;;3.00;3.00;;;;;21.17;48.30;99088.28;4961925;28;102573;-58
2022/06/18 01:51:17;;;;;;;;;3.67;3.67;;;;;21.18;48.49;99098.22;4953281;28;103224;-58
2022/06/18 01:53:55;;;;;;;;;3.33;3.33;;;;;21.18;48.61;99084.44;4948905;28;102642;-58
2022/06/18 01:56:31;;;;;;;;;3.00;3.00;;;;;21.16;48.73;99086.66;4940841;28;109026;-58
2022/06/18 01:59:04;;;;;;;;;4.67;3.67;;;;;21.15;48.36;99087.72;4942747;28;102662;-58
2022/06/18 02:01:33;;;;;;;;;3.67;3.67;;;;;21.15;48.78;99084.16;4948018;28;102351;-58
2022/06/18 02:04:01;;;;;;;;;4.00;4.00;;;;;21.14;48.42;99088.81;4982615;28;102450;-58
2022/06/18 02:06:29;;;;;;;;;5.00;4.00;;;;;21.12;48.47;99079.94;4935526;28;104037;-58
2022/06/18 02:08:56;;;;;;;;;4.33;4.00;;;;;21.14;48.13;99083.31;4951639;28;102553;-59
2022/06/18 02:11:23;;;;;;;;;3.67;3.67;;;;;21.14;48.42;99077.81;4962576;28;102536;-58
2022/06/18 02:14:00;;;;;;;;;4.00;4.00;;;;;21.15;48.26;99079.47;4976528;28;102385;-58
2022/06/18 02:16:28;;;;;;;;;3.67;3.67;;;;;21.17;48.38;99070.94;4920770;28;108914;-58
2022/06/18 02:18:59;;;;;;;;;4.67;4.33;;;;;21.17;48.23;99071.78;4954957;28;102145;-58
2022/06/18 02:21:26;;;;;;;;;4.00;4.00;;;;;21.16;48.09;99070.16;4944097;28;102505;-58
2022/06/18 02:23:53;;;;;;;;;4.00;4.00;;;;;21.15;48.27;99071.22;4964081;28;102090;-57
2022/06/18 02:26:21;;;;;;;;;4.00;4.00;;;;;21.14;48.51;99075.06;4962100;28;108932;-58
2022/06/18 02:28:50;;;;;;;;;4.00;4.00;;;;;21.16;48.34;99081.16;4959045;28;102214;-58
2022/06/18 02:31:19;;;;;;;;;3.33;2.67;;;;;21.12;48.24;99068.94;4954370;28;102701;-58
2022/06/18 02:33:51;;;;;;;;;3.33;3.33;;;;;21.12;47.98;99071.69;4990669;28;103913;-58
2022/06/18 02:36:20;;;;;;;;;4.67;4.00;;;;;21.11;48.10;99067.31;4988557;28;104049;-57
2022/06/18 02:38:47;;;;;;;;;4.00;4.00;;;;;21.13;48.20;99075.31;4953923;28;102198;-58
2022/06/18 02:41:14;;;;;;;;;4.00;4.00;;;;;21.11;48.12;99072.81;4956980;28;102090;-58
2022/06/18 02:43:42;;;;;;;;;4.33;3.67;;;;;21.09;48.26;99074.97;4964241;28;102351;-58
2022/06/18 02:46:09;;;;;;;;;5.00;5.00;;;;;21.10;48.14;99071.13;4960115;28;105151;-58
2022/06/18 02:48:36;;;;;;;;;6.00;4.33;;;;;21.12;47.92;99070.88;4948549;28;102155;-58
2022/06/18 02:51:04;;;;;;;;;4.00;4.00;;;;;21.12;47.86;99071.69;4955591;28;102266;-58
2022/06/18 02:53:31;;;;;;;;;3.67;3.67;;;;;21.12;48.37;99065.38;4955614;28;102274;-58
2022/06/18 02:56:00;;;;;;;;;4.00;3.67;;;;;21.10;47.92;99073.88;4962155;28;104066;-58
2022/06/18 02:58:35;;;;;;;;;3.67;3.67;;;;;21.09;48.56;99077.72;4948938;28;102320;-58
2022/06/18 03:01:05;;;;;;;;;4.33;4.33;;;;;21.09;48.09;99077.72;4953931;28;102504;-58
2022/06/18 03:03:35;;;;;;;;;3.00;3.00;;;;;21.09;48.72;99079.63;4957802;28;102564;-58
2022/06/18 03:06:02;;;;;;;;;4.00;4.00;;;;;21.07;48.22;99071.66;4955306;28;104011;-58
2022/06/18 03:08:30;;;;;;;;;5.00;5.00;;;;;21.08;48.58;99073.28;4955695;28;102159;-58
2022/06/18 03:13:43;;;;;;;;;4.00;4.00;;;;;21.07;48.14;99076.31;4956455;28;102194;-58
2022/06/18 03:16:11;;;;;;;;;4.33;4.33;;;;;21.06;48.08;99081.00;4959531;28;105142;-58
2022/06/18 03:18:39;;;;;;;;;5.67;4.00;;;;;21.07;48.38;99079.91;4955433;28;102549;-58
2022/06/18 03:21:21;;;;;;;;;3.67;3.67;;;;;21.06;48.22;99077.41;4954804;28;102881;-58
2022/06/18 03:23:48;;;;;;;;;4.67;4.67;;;;;21.07;48.07;99079.06;4959326;28;102366;-58
2022/06/18 03:26:16;;;;;;;;;5.00;5.00;;;;;21.08;48.22;99078.78;4958033;28;104059;-58
2022/06/18 03:28:43;;;;;;;;;4.33;3.67;;;;;21.09;47.81;99076.88;4962307;28;102376;-58
2022/06/18 03:31:10;;;;;;;;;4.00;3.67;;;;;21.08;47.99;99084.28;4957335;28;103092;-58
2022/06/18 03:33:38;;;;;;;;;4.67;3.00;;;;;21.07;48.39;99071.66;4962715;28;102270;-57
2022/06/18 03:36:06;;;;;;;;;4.33;4.33;;;;;21.08;48.60;99080.72;4964312;28;104055;-58
2022/06/18 03:38:33;;;;;;;;;5.00;4.33;;;;;21.07;48.02;99076.31;4965122;28;102504;-58
2022/06/18 03:41:00;;;;;;;;;4.00;4.00;;;;;21.06;48.00;99081.00;4954746;28;102232;-58
2022/06/18 03:43:27;;;;;;;;;4.00;4.00;;;;;21.04;48.24;99072.16;4956621;28;102248;-58
2022/06/18 03:45:59;;;;;;;;;5.00;5.00;;;;;21.04;48.26;99074.91;4966589;28;104225;-58
2022/06/18 03:48:36;;;;;;;;;3.67;3.67;;;;;21.04;48.48;99074.91;4942617;28;102633;-58
2022/06/18 03:51:03;;;;;;;;;3.00;3.00;;;;;21.03;48.52;99069.69;4956133;28;102504;-58
2022/06/18 03:53:30;;;;;;;;;3.67;3.67;;;;;21.04;48.38;99072.16;4962868;28;102265;-58
2022/06/18 03:55:57;;;;;;;;;4.00;4.00;;;;;21.06;47.89;99069.16;4963059;28;104032;-59
2022/06/18 03:58:24;;;;;;;;;4.33;4.33;;;;;21.06;48.56;99063.66;4957416;28;102394;-58
2022/06/18 04:00:51;;;;;;;;;4.00;4.00;;;;;21.05;47.92;99060.06;4964530;28;104639;-58
2022/06/18 04:03:18;;;;;;;;;4.00;4.00;;;;;21.05;48.46;99060.06;4992872;28;102508;-58
2022/06/18 04:05:45;;;;;;;;;3.33;3.33;;;;;21.05;47.88;99062.81;4962728;28;104001;-58
2022/06/18 04:08:13;;;;;;;;;4.00;3.67;;;;;21.05;48.69;99062.81;4957365;28;102332;-58
2022/06/18 04:10:40;;;;;;;;;4.33;4.33;;;;;21.04;48.21;99066.66;4993709;28;103377;-58
2022/06/18 04:13:07;;;;;;;;;3.67;3.67;;;;;21.05;47.88;99073.00;4964743;28;102527;-58
2022/06/18 04:15:35;;;;;;;;;4.50;3.50;;;;;21.02;48.50;99066.09;4964793;28;104137;-58
2022/06/18 04:18:02;;;;;;;;;3.00;3.00;;;;;21.03;48.13;99067.72;4959075;28;102357;-58
2022/06/18 04:20:35;;;;;;;;;4.67;4.67;;;;;21.04;48.14;99074.91;4963597;28;102043;-58
2022/06/18 04:23:03;;;;;;;;;5.00;5.00;;;;;21.05;48.18;99073.81;4977054;28;103242;-59
2022/06/18 04:25:30;;;;;;;;;3.67;3.67;;;;;21.03;48.21;99070.47;4958610;28;104374;-58
2022/06/18 04:27:58;;;;;;;;;2.67;2.67;;;;;21.04;48.39;99074.06;4957502;28;102176;-58
2022/06/18 04:30:27;;;;;;;;;4.00;3.33;;;;;21.04;47.98;99083.16;4954457;28;102718;-58
2022/06/18 04:32:54;;;;;;;;;2.67;2.67;;;;;21.05;48.33;99079.31;4965611;28;102512;-58
2022/06/18 04:35:21;;;;;;;;;3.00;3.00;;;;;21.05;47.81;99068.31;4959133;28;106518;-58
2022/06/18 04:37:49;;;;;;;;;3.00;3.00;;;;;21.05;48.38;99075.75;4947527;28;102650;-58
2022/06/18 04:40:21;;;;;;;;;4.00;3.00;;;;;21.03;48.34;99069.69;4958448;28;102199;-58
2022/06/18 04:43:08;;;;;;;;;3.00;3.00;;;;;21.03;48.10;99069.69;4961135;28;102236;-58
2022/06/18 04:45:36;;;;;;;;;4.33;4.00;;;;;21.03;48.52;99075.97;4961024;28;104202;-58
2022/06/18 04:48:03;;;;;;;;;5.00;5.00;;;;;21.02;48.26;99068.84;4968062;28;102342;-58
2022/06/18 04:50:33;;;;;;;;;5.33;4.33;;;;;21.03;48.29;99078.72;4956029;28;102226;-58
2022/06/18 04:53:00;;;;;;;;;4.67;3.67;;;;;21.03;47.89;99075.19;4960764;28;102524;-59
2022/06/18 04:55:28;;;;;;;;;5.00;4.00;;;;;21.02;48.08;99074.34;4955626;28;104145;-59
2022/06/18 04:57:55;;;;;;;;;5.00;4.00;;;;;21.01;48.05;99078.19;4963274;28;102106;-58
2022/06/18 05:00:22;;;;;;;;;2.00;2.00;;;;;21.03;47.93;99075.97;4958733;28;104326;-58
2022/06/18 05:02:49;;;;;;;;;4.00;4.00;;;;;21.03;48.24;99077.94;4965903;28;102344;-58
2022/06/18 05:05:19;;;;;;;;;3.00;2.67;;;;;21.03;48.32;99086.19;4962243;28;104216;-58
2022/06/18 05:07:46;;;;;;;;;4.67;4.33;;;;;21.02;48.26;99079.84;4957179;28;102156;-58
2022/06/18 05:10:13;;;;;;;;;4.00;4.00;;;;;21.02;48.46;99087.25;4959140;28;102232;-58
2022/06/18 05:12:40;;;;;;;;;4.67;4.67;;;;;21.02;48.13;99088.09;4956169;28;102519;-58
2022/06/18 05:15:08;;;;;;;;;4.00;4.00;;;;;21.01;48.59;99089.19;4953311;28;104043;-58
2022/06/18 05:17:36;;;;;;;;;4.33;4.33;;;;;21.01;48.22;99083.69;4963019;28;102360;-58
2022/06/18 05:20:10;;;;;;;;;3.67;3.67;;;;;21.02;48.15;99077.09;4962454;28;102338;-58
2022/06/18 05:22:38;;;;;;;;;4.00;4.00;;;;;21.02;48.54;99079.00;4981207;28;102376;-58
2022/06/18 05:25:05;;;;;;;;;1.67;1.67;;;;;21.02;48.69;99076.25;4959464;28;104208;-58
2022/06/18 05:27:33;;;;;;;;;3.33;3.00;;;;;21.03;48.46;99077.94;4954831;28;102873;-58
2022/06/18 05:30:00;;;;;;;;;4.00;4.00;;;;;21.02;48.11;99079.84;4968202;28;102376;-58
2022/06/18 05:32:28;;;;;;;;;3.67;3.67;;;;;21.00;48.70;99081.16;4960575;28;102174;-58
2022/06/18 05:34:55;;;;;;;;;4.33;3.00;;;;;21.02;47.94;99079.00;4960039;28;104038;-58
2022/06/18 05:37:23;;;;;;;;;5.00;4.33;;;;;21.01;48.25;99089.19;4963242;28;102619;-58
2022/06/18 05:39:51;;;;;;;;;4.00;4.00;;;;;21.02;48.18;99081.75;4939002;28;102527;-58
2022/06/18 05:42:18;;;;;;;;;3.33;3.00;;;;;21.03;48.46;99075.19;4953519;28;104911;-58
2022/06/18 05:44:45;;;;;;;;;5.00;4.50;;;;;21.03;48.26;99078.72;4953541;28;104137;-57
2022/06/18 05:47:23;;;;;;;;;4.00;4.00;;;;;21.04;48.40;99077.66;4964840;28;102567;-58
2022/06/18 05:49:53;;;;;;;;;4.00;3.67;;;;;21.04;48.09;99077.66;4952033;28;102444;-58
2022/06/18 05:52:20;;;;;;;;;2.67;2.67;;;;;21.04;48.44;99077.66;4947891;28;102759;-58
2022/06/18 05:54:48;;;;;;;;;5.00;3.67;;;;;21.05;48.68;99073.00;4950514;28;104059;-58
2022/06/18 05:57:15;;;;;;;;;3.67;3.67;;;;;21.06;48.44;99080.16;4954466;28;102219;-58
2022/06/18 05:59:42;;;;;;;;;4.00;4.00;;;;;21.05;48.57;99073.00;4956589;28;101995;-58
2022/06/18 06:02:10;;;;;;;;;3.33;3.33;;;;;21.05;48.39;99073.81;4964048;28;103042;-58
2022/06/18 06:04:39;;;;;;;;;4.00;4.00;;;;;21.06;48.49;99077.41;4950476;28;104035;-58
2022/06/18 06:07:06;;;;;;;;;4.00;3.00;;;;;20.95;48.35;99051.69;4956258;28;102287;-58
2022/06/18 06:12:19;;;;;;;;;4.67;3.67;;;;;21.05;48.23;99062.81;4957219;28;102242;-58
2022/06/18 06:14:46;;;;;;;;;3.00;2.67;;;;;21.06;48.31;99059.00;4962672;28;104123;-58
2022/06/18 06:17:16;;;;;;;;;3.67;3.67;;;;;21.07;48.20;99065.31;4961729;28;102589;-58
2022/06/18 06:19:44;;;;;;;;;2.00;2.00;;;;;21.07;48.58;99062.56;4954709;28;104988;-58
2022/06/18 06:22:11;;;;;;;;;3.00;2.33;;;;;21.06;48.00;99063.66;4959331;28;102448;-58
2022/06/18 06:24:38;;;;;;;;;3.00;3.00;;;;;21.06;48.10;99058.16;4954431;28;104103;-58
2022/06/18 06:27:05;;;;;;;;;3.33;3.33;;;;;21.07;48.26;99055.16;4958627;28;102224;-58
2022/06/18 06:29:32;;;;;;;;;4.67;3.67;;;;;21.07;48.40;99059.81;4957789;28;102005;-58
2022/06/18 06:31:59;;;;;;;;;5.67;4.00;;;;;21.07;48.51;99054.31;4964120;28;104325;-59
2022/06/18 06:34:26;;;;;;;;;4.00;3.33;;;;;21.06;48.54;99048.00;4963897;28;104377;-58
2022/06/18 06:36:53;;;;;;;;;4.00;4.00;;;;;21.06;48.22;99061.75;4963418;28;102179;-58
2022/06/18 06:39:20;;;;;;;;;3.67;3.00;;;;;21.07;48.29;99060.66;4960931;28;102126;-58
2022/06/18 06:41:47;;;;;;;;;3.00;3.00;;;;;21.08;48.13;99059.53;4956810;28;102403;-58
2022/06/18 06:44:14;;;;;;;;;3.00;3.00;;;;;21.07;48.14;99060.66;4954010;28;104187;-58
2022/06/18 06:46:41;;;;;;;;;3.67;3.67;;;;;21.08;48.61;99056.78;4943799;28;103720;-58
2022/06/18 06:49:09;;;;;;;;;3.00;3.00;;;;;21.08;47.98;99059.53;4955219;28;102229;-58
2022/06/18 06:51:37;;;;;;;;;4.67;3.67;;;;;21.09;48.47;99058.47;4962536;28;102085;-58
2022/06/18 06:54:06;;;;;;;;;4.00;3.00;;;;;21.09;48.54;99054.88;4963525;28;104080;-58
2022/06/18 06:59:19;;;;;;;;;6.00;4.67;;;;;21.10;48.14;99051.06;4962130;28;102362;-58
2022/06/18 07:01:46;;;;;;;;;3.00;3.00;;;;;21.11;47.92;99049.97;4966429;28;102587;-58
2022/06/18 07:04:14;;;;;;;;;3.00;3.00;;;;;21.12;48.34;99062.63;4963603;28;104005;-58
2022/06/18 07:06:41;;;;;;;;;3.67;3.67;;;;;21.12;48.34;99062.63;4960249;28;103041;-58
2022/06/18 07:09:08;;;;;;;;;2.67;2.00;;;;;21.11;48.39;99056.31;4965378;28;102481;-58
2022/06/18 07:11:37;;;;;;;;;2.00;2.00;;;;;21.12;48.47;99055.19;4955047;28;102298;-58
2022/06/18 07:14:05;;;;;;;;;3.00;3.00;;;;;21.12;48.06;99055.19;4961575;28;104096;-58
2022/06/18 07:16:32;;;;;;;;;4.67;4.67;;;;;21.13;48.24;99056.06;4964864;28;102640;-58
2022/06/18 07:18:59;;;;;;;;;3.33;3.33;;;;;21.12;48.47;99044.19;4969598;28;102694;-58
2022/06/18 07:21:27;;;;;;;;;3.00;2.00;;;;;21.12;48.15;99049.69;4964016;28;102524;-58
2022/06/18 07:23:54;;;;;;;;;3.00;3.00;;;;;21.14;48.14;99055.81;4960590;28;104197;-58
2022/06/18 07:26:21;;;;;;;;;4.00;4.00;;;;;21.14;48.10;99050.31;4955002;28;110471;-58
2022/06/18 07:28:49;;;;;;;;;3.00;3.00;;;;;21.16;48.09;99055.56;4959157;28;102282;-58
2022/06/18 07:31:25;;;;;;;;;4.00;3.00;;;;;21.14;48.34;99057.72;4935311;28;102688;-58
2022/06/18 07:33:56;;;;;;;;;2.67;2.67;;;;;21.15;48.08;99056.63;4954761;28;104048;-58
2022/06/18 07:36:23;;;;;;;;;3.00;3.00;;;;;21.15;48.27;99060.22;4957347;28;102570;-58
2022/06/18 07:38:50;;;;;;;;;2.67;2.67;;;;;21.15;48.38;99054.72;4951242;28;102780;-58
2022/06/18 07:41:19;;;;;;;;;4.00;4.00;;;;;21.16;48.12;99061.06;4968908;28;102364;-58
2022/06/18 07:43:52;;;;;;;;;3.67;3.67;;;;;21.16;48.56;99059.16;4958104;28;104083;-58
2022/06/18 07:46:20;;;;;;;;;3.67;3.67;;;;;21.17;48.12;99060.78;4952861;28;103310;-58
2022/06/18 07:48:47;;;;;;;;;2.67;2.67;;;;;21.16;47.95;99061.91;4952457;28;104370;-58
2022/06/18 07:51:14;;;;;;;;;2.67;2.67;;;;;21.18;48.47;99056.13;4955829;28;102570;-58
2022/06/18 07:53:42;;;;;;;;;4.00;3.33;;;;;21.18;47.99;99056.13;4991328;28;104146;-58
2022/06/18 07:56:10;;;;;;;;;5.00;4.33;;;;;21.18;48.22;99054.19;4962402;28;102362;-58
2022/06/18 07:58:37;;;;;;;;;3.00;3.00;;;;;21.19;48.16;99053.13;4991497;28;102549;-57
2022/06/18 08:01:04;;;;;;;;;3.00;3.00;;;;;21.20;48.29;99052.03;4952209;28;102287;-58
2022/06/18 08:03:32;;;;;;;;;4.33;2.67;;;;;21.20;48.60;99038.28;4963870;28;104173;-58
2022/06/18 08:06:02;;;;;;;;;2.67;2.67;;;;;21.16;48.18;99023.38;4949547;28;102161;-58
2022/06/18 08:08:29;;;;;;;;;3.00;3.00;;;;;21.21;48.17;99028.91;4958638;28;102141;-58
2022/06/18 08:11:02;;;;;;;;;3.00;3.00;;;;;21.21;47.95;99020.66;4946453;28;102155;-58
2022/06/18 08:13:29;;;;;;;;;4.67;3.00;;;;;21.22;48.25;99022.34;4949068;28;109429;-58
2022/06/18 08:15:57;;;;;;;;;3.67;3.67;;;;;21.22;48.36;99019.59;4953018;28;102294;-58
2022/06/18 08:18:24;;;;;;;;;2.33;2.33;;;;;21.23;48.35;99024.00;4953780;28;102085;-58
2022/06/18 08:20:59;;;;;;;;;4.00;3.00;;;;;21.24;48.31;99022.91;4957705;28;102687;-58
2022/06/18 08:23:27;;;;;;;;;5.00;3.67;;;;;21.25;48.26;99023.75;4960313;28;105130;-58
2022/06/18 08:25:54;;;;;;;;;3.67;3.00;;;;;21.24;48.13;99020.16;4950965;28;102190;-58
2022/06/18 08:28:21;;;;;;;;;1.67;1.67;;;;;21.26;48.12;99025.38;4960210;28;102394;-58
2022/06/18 08:30:48;;;;;;;;;2.67;2.67;;;;;21.27;48.12;99019.63;4958839;28;102329;-58
2022/06/18 08:33:15;;;;;;;;;3.67;3.00;;;;;21.27;48.08;99016.88;4954342;28;104023;-58
2022/06/18 08:35:43;;;;;;;;;2.33;2.33;;;;;21.29;48.44;99014.72;4957200;28;102420;-58
2022/06/18 08:38:10;;;;;;;;;4.00;3.67;;;;;21.28;47.76;99007.56;4959798;28;103154;-58
2022/06/18 08:40:51;;;;;;;;;3.00;3.00;;;;;21.30;48.12;99010.03;4956431;28;102653;-58
2022/06/18 08:43:21;;;;;;;;;4.00;3.00;;;;;21.29;48.10;99009.22;4953729;28;104131;-58
2022/06/18 08:46:06;;;;;;;;;2.67;2.67;;;;;21.31;48.43;99003.44;4953065;28;102247;-58
2022/06/18 08:48:42;;;;;;;;;3.00;3.00;;;;;21.30;48.09;98994.34;4959557;28;104779;-58
2022/06/18 08:51:31;;;;;;;;;2.67;2.67;;;;;21.31;48.31;98996.03;4954864;28;102394;-58
2022/06/18 08:54:20;;;;;;;;;3.00;2.00;;;;;21.32;48.53;98986.69;4938860;28;103902;-58
2022/06/18 08:56:51;;;;;;;;;1.67;1.67;;;;;21.32;48.45;98983.94;4958367;28;102542;-58
2022/06/18 08:59:36;;;;;;;;;2.67;2.33;;;;;21.33;48.30;98993.84;4947660;28;102476;-58
2022/06/18 09:02:06;;;;;;;;;2.33;2.33;;;;;21.34;48.20;98984.47;4952135;28;102227;-58
2022/06/18 09:05:06;;;;;;;;;3.33;2.67;;;;;21.34;48.50;98978.97;4954671;28;109099;-58
2022/06/18 09:08:07;;;;;;;;;3.00;3.00;;;;;21.35;48.08;98975.16;4915756;28;102485;-58
2022/06/18 09:11:11;;;;;;;;;4.00;3.00;;;;;21.38;47.95;98972.97;4957043;28;102527;-58
2022/06/18 09:13:49;;;;;;;;;2.00;2.00;;;;;21.36;48.07;98968.56;4943295;28;102498;-58
2022/06/18 09:16:18;;;;;;;;;3.00;3.00;;;;;21.38;48.18;98970.22;4955022;28;104250;-57
2022/06/18 09:18:50;;;;;;;;;3.67;3.67;;;;;21.39;48.16;98969.13;4955431;28;102728;-58
2022/06/18 09:21:23;;;;;;;;;4.00;3.33;;;;;21.39;48.08;98974.63;4958816;28;102125;-58
2022/06/18 09:23:58;;;;;;;;;3.67;2.00;;;;;21.41;48.36;98983.44;4959753;28;102341;-57
2022/06/18 09:26:33;;;;;;;;;2.00;2.00;;;;;21.41;48.30;98975.19;4974872;28;104116;-58
2022/06/18 09:29:43;;;;;;;;;3.33;2.67;;;;;21.43;48.04;98970.28;4960958;28;102321;-58
2022/06/18 09:32:24;;;;;;;;;3.00;3.00;;;;;21.42;47.99;98968.59;4925489;28;102194;-58
2022/06/18 09:35:00;;;;;;;;;2.67;2.67;;;;;21.43;47.96;98970.28;4987913;28;103396;-58
2022/06/18 09:38:01;;;;;;;;;2.67;2.67;;;;;21.43;48.07;98976.59;4941533;28;104191;-58
2022/06/18 09:41:02;;;;;;;;;3.00;3.00;;;;;21.46;48.35;98961.47;4952093;28;102605;-58
2022/06/18 09:43:45;;;;;;;;;3.67;3.67;;;;;21.46;47.64;98964.22;4951009;28;102087;-58
2022/06/18 09:46:17;;;;;;;;;4.00;3.33;;;;;21.47;47.96;98966.72;4963446;28;102448;-58
2022/06/18 09:48:44;;;;;;;;;2.00;2.00;;;;;21.48;47.90;98967.56;4975198;28;104720;-58
2022/06/18 09:51:28;;;;;;;;;3.00;3.00;;;;;21.49;48.11;98960.94;4955452;28;103209;-59
2022/06/18 09:53:58;;;;;;;;;3.00;3.00;;;;;21.49;48.25;98963.69;4957642;28;102254;-58
2022/06/18 09:56:33;;;;;;;;;3.00;2.33;;;;;21.50;47.93;98959.88;4978771;28;102509;-58
2022/06/18 09:59:03;;;;;;;;;2.33;2.33;;;;;21.50;48.24;98954.34;4957695;28;104964;-58
2022/06/18 10:01:47;;;;;;;;;2.33;2.33;;;;;21.50;48.39;98954.34;4959680;28;102241;-58
2022/06/18 10:07:05;;;;;;;;;1.67;1.67;;;;;21.50;48.12;98954.34;4956648;28;102252;-59
2022/06/18 10:09:48;;;;;;;;;3.00;3.00;;;;;21.50;47.89;98943.34;4954882;28;108853;-59
2022/06/18 10:12:26;;;;;;;;;3.00;2.67;;;;;21.52;47.96;98941.19;4959340;28;102818;-58
2022/06/18 10:15:00;;;;;;;;;3.00;3.00;;;;;21.52;47.87;98943.94;4954839;28;102212;-58
2022/06/18 10:17:31;;;;;;;;;2.67;2.67;;;;;21.53;48.33;98942.81;4962137;28;102350;-58
2022/06/18 10:20:21;;;;;;;;;2.00;1.67;;;;;21.54;48.33;98938.97;4988335;28;104088;-58
2022/06/18 10:23:03;;;;;;;;;4.00;3.00;;;;;21.54;47.93;98922.47;4954740;28;102191;-58
2022/06/18 10:25:58;;;;;;;;;3.33;3.00;;;;;21.54;47.70;98928.81;4956380;28;104910;-57
2022/06/18 10:28:46;;;;;;;;;2.00;1.00;;;;;21.55;47.94;98926.88;4953623;28;102383;-58
2022/06/18 10:31:16;;;;;;;;;2.67;2.67;;;;;21.55;48.14;98915.88;4956303;28;108835;-58
2022/06/18 10:34:09;;;;;;;;;2.67;2.67;;;;;21.55;48.43;98899.38;4952664;28;102475;-58
2022/06/18 10:37:05;;;;;;;;;2.00;2.00;;;;;21.55;47.88;98913.97;4956279;28;102131;-58
2022/06/18 10:39:37;;;;;;;;;3.67;3.00;;;;;21.57;48.06;98908.19;4949007;28;102571;-58
2022/06/18 10:42:32;;;;;;;;;2.00;2.00;;;;;21.56;47.90;98901.88;4987780;28;109028;-58
2022/06/18 10:44:59;;;;;;;;;2.00;1.67;;;;;21.58;48.30;98901.56;4959556;28;102521;-58
2022/06/18 10:47:36;;;;;;;;;2.00;2.00;;;;;21.58;47.93;98898.81;4962250;28;102128;-58
2022/06/18 10:50:06;;;;;;;;;2.67;2.67;;;;;21.59;48.24;98903.25;4960872;28;102527;-58
2022/06/18 10:52:33;;;;;;;;;2.00;2.00;;;;;21.59;48.36;98887.56;4959231;28;108897;-58
2022/06/18 10:55:19;;;;;;;;;3.00;3.00;;;;;21.59;48.16;98890.31;4986255;28;102334;-58
2022/06/18 10:57:48;;;;;;;;;2.33;2.33;;;;;21.60;47.81;98882.88;4941589;28;102534;-58
2022/06/18 11:00:24;;;;;;;;;2.00;2.00;;;;;21.60;48.05;98871.88;4958032;28;102483;-58
2022/06/18 11:03:00;;;;;;;;;2.00;2.00;;;;;21.60;47.95;98875.47;4954991;28;104208;-58
2022/06/18 11:05:36;;;;;;;;;2.00;2.00;;;;;21.61;48.07;98868.88;4960785;28;104296;-58
2022/06/18 11:08:05;;;;;;;;;2.00;2.00;;;;;21.60;48.37;98871.88;4954223;28;102177;-58
2022/06/18 11:10:49;;;;;;;;;2.67;2.33;;;;;21.61;47.84;98868.03;4951638;28;102698;-58
2022/06/18 11:13:28;;;;;;;;;2.33;2.00;;;;;21.61;48.06;98870.78;4956726;28;109049;-58
2022/06/18 11:16:13;;;;;;;;;1.67;1.67;;;;;21.62;48.01;98858.66;4937336;28;102058;-58
2022/06/18 11:18:54;;;;;;;;;2.00;2.00;;;;;21.62;48.10;98853.16;4937753;28;102346;-58
2022/06/18 11:21:40;;;;;;;;;3.00;3.00;;;;;21.57;48.08;98839.41;4950248;28;102208;-58
2022/06/18 11:24:16;;;;;;;;;2.33;2.00;;;;;21.63;48.11;98852.06;4945786;28;108850;-57
2022/06/18 11:26:55;;;;;;;;;3.00;2.67;;;;;21.66;48.18;98868.03;4944216;28;102492;-58
2022/06/18 11:29:35;;;;;;;;;3.00;2.00;;;;;21.67;47.81;98861.47;4948422;28;102293;-58
2022/06/18 11:32:12;;;;;;;;;1.67;1.67;;;;;21.67;47.76;98854.03;4949711;28;102259;-58
2022/06/18 11:34:49;;;;;;;;;1.67;1.67;;;;;21.67;48.09;98850.44;4922655;28;108828;-58
2022/06/18 11:37:24;;;;;;;;;4.00;3.00;;;;;21.67;47.85;98850.44;4946776;28;102736;-58
2022/06/18 11:40:09;;;;;;;;;2.00;2.00;;;;;21.68;48.04;98858.44;4934574;28;103396;-58
2022/06/18 11:42:50;;;;;;;;;2.67;2.00;;;;;21.67;48.02;98855.94;4964332;28;102475;-58
2022/06/18 11:45:35;;;;;;;;;1.67;1.67;;;;;21.68;47.80;98852.94;4954658;28;108793;-58
2022/06/18 11:48:14;;;;;;;;;2.00;2.00;;;;;21.70;48.19;98841.69;4942557;28;102568;-58
2022/06/18 11:50:51;;;;;;;;;1.67;1.67;;;;;21.70;48.05;98847.19;4955066;28;102172;-58
2022/06/18 11:53:20;;;;;;;;;2.00;2.00;;;;;21.72;47.77;98847.72;4978870;28;105922;-58
2022/06/18 11:55:50;;;;;;;;;2.00;2.00;;;;;21.73;47.62;98844.72;4986899;28;104051;-58
2022/06/18 11:58:44;;;;;;;;;2.67;2.67;;;;;21.74;47.67;98837.28;4995336;28;102428;-58
2022/06/18 12:01:20;;;;;;;;;2.33;2.33;;;;;21.75;47.85;98833.41;4976495;28;102174;-58